Terminal Aerodrome Forecast
Issued by NWS

Home | Current Version | Previous Version | Text Only | Print | Product List | Glossary Off
Versions: 1 2 3 4 5 6 7 8 9 10 11 12 13 14 15 16 17 18 19 20

000
FTUS43 KTOP 270520
TAFMHK
TAF
KMHK 270520Z 2706/2806 08005KT P6SM FEW200
     FM271400 13009KT P6SM SCT150
     FM271800 16012KT P6SM SCT200=

USA.gov is the U.S. government's official web portal to all federal, state and local government web resources and services.